Aureola, Iowa
Current Conditions -  °F | °C
As of 9:35 AM on Friday 24 Oct 2014 (Local Time) from KCCY Reporting Station
Haze Haze  
Wind Chill: 50°   Ceiling: 300
Heat Index: 50°   Visibility: 1mi
Dew Point: 50°   Wind: 10mph
Humidity: 100%   Direction: 160°SSE
Pressure: 29.96"   Gusts: NA
Location:  42.9618°N, 92.9184°W
Report Text: KCCY 241435Z AUTO 16009KT 1SM BR OVC003 10/10 A2996 RMK AO2
Loading
Personal Weather Stations






























Interactive Weather Map
Tropical Storm Tracking
New forecast layout! Learn more

10-Day Weather Forecast

Advertisements
Track Severe Weather on mobile